createdAt,value
2023-12-19T00:01:02.412Z,99.40
2023-12-19T00:03:45.626Z,100.73
2023-12-19T00:06:28.719Z,101.50
2023-12-19T00:09:11.752Z,101.50
2023-12-19T00:11:54.810Z,127.17
2023-12-19T00:14:37.998Z,122.60
2023-12-19T00:17:22.543Z,102.83
2023-12-19T00:20:06.389Z,94.27
2023-12-19T00:22:49.507Z,91.10
2023-12-19T00:25:33.192Z,102.73
2023-12-19T00:28:16.388Z,95.97
2023-12-19T00:30:59.575Z,96.50
2023-12-19T00:33:44.118Z,107.03
2023-12-19T00:36:27.251Z,99.67
2023-12-19T00:39:10.682Z,104.23
2023-12-19T00:41:53.921Z,103.30
2023-12-19T00:44:37.621Z,103.60
2023-12-19T00:47:20.881Z,104.57
2023-12-19T00:50:05.975Z,99.37
2023-12-19T00:52:49.031Z,103.90
2023-12-19T00:55:32.071Z,99.87
2023-12-19T00:58:15.409Z,108.33
2023-12-19T01:00:58.524Z,107.43
2023-12-19T01:03:41.830Z,104.63
2023-12-19T01:06:26.461Z,95.23
2023-12-19T01:09:11.132Z,98.53
2023-12-19T01:11:54.274Z,104.37
2023-12-19T01:14:37.550Z,99.10
2023-12-19T01:17:20.602Z,93.40
2023-12-19T01:20:03.869Z,103.13
2023-12-19T01:22:48.368Z,77.33
2023-12-19T01:25:32.018Z,90.30
2023-12-19T01:28:15.359Z,79.50
2023-12-19T01:30:58.649Z,67.97
2023-12-19T01:33:42.039Z,76.43
2023-12-19T01:36:27.281Z,65.73
2023-12-19T01:39:11.905Z,55.13
2023-12-19T01:41:55.040Z,63.77
2023-12-19T01:44:38.541Z,66.10
2023-12-19T01:47:21.933Z,66.63
2023-12-19T01:50:06.794Z,60.37
2023-12-19T01:52:53.641Z,64.77
2023-12-19T01:55:39.486Z,56.80
2023-12-19T01:58:23.053Z,58.90
2023-12-19T02:01:07.718Z,56.93
2023-12-19T02:03:50.961Z,61.10
2023-12-19T02:06:36.405Z,62.57
2023-12-19T02:09:19.627Z,54.20
2023-12-19T02:12:04.342Z,57.60
2023-12-19T02:14:47.707Z,54.77
2023-12-19T02:17:30.872Z,53.13
2023-12-19T02:20:15.735Z,52.80
2023-12-19T02:23:00.164Z,60.77
2023-12-19T02:25:43.691Z,59.37
2023-12-19T02:28:26.745Z,56.00
2023-12-19T02:31:09.997Z,59.67
2023-12-19T02:33:53.138Z,52.53
2023-12-19T02:36:37.937Z,57.00
2023-12-19T02:39:22.566Z,58.30
2023-12-19T02:42:06.386Z,61.53
2023-12-19T02:44:49.416Z,65.20
2023-12-19T02:47:32.477Z,66.67
2023-12-19T02:50:15.611Z,72.57
2023-12-19T02:52:58.680Z,77.67
2023-12-19T02:55:43.643Z,79.63
2023-12-19T02:58:26.704Z,79.23
2023-12-19T03:01:10.074Z,76.70
2023-12-19T03:03:53.349Z,96.10
2023-12-19T03:06:36.532Z,92.77
2023-12-19T03:09:19.972Z,95.03
2023-12-19T03:12:06.081Z,86.33
2023-12-19T03:14:49.186Z,98.40
2023-12-19T03:17:32.308Z,92.47
2023-12-19T03:20:15.498Z,92.83
2023-12-19T03:22:58.680Z,95.23
2023-12-19T03:25:41.748Z,89.27
2023-12-19T03:28:26.193Z,97.60
2023-12-19T03:31:09.301Z,93.33
2023-12-19T03:33:52.774Z,87.47
2023-12-19T03:36:35.932Z,89.13
2023-12-19T03:39:18.977Z,93.73
2023-12-19T03:42:11.401Z,95.47
2023-12-19T03:44:57.680Z,80.10
2023-12-19T03:47:40.950Z,82.73
2023-12-19T03:50:24.094Z,84.40
2023-12-19T03:53:07.078Z,92.50
2023-12-19T03:55:50.296Z,88.07
2023-12-19T03:58:33.397Z,85.00
2023-12-19T04:01:19.955Z,86.20
2023-12-19T04:04:03.177Z,87.80
2023-12-19T04:06:46.603Z,87.60
2023-12-19T04:09:29.759Z,84.63
2023-12-19T04:12:14.680Z,83.03
2023-12-19T04:14:57.868Z,90.17
2023-12-19T04:17:42.421Z,82.63
2023-12-19T04:20:25.514Z,81.00
2023-12-19T04:23:08.645Z,74.77
2023-12-19T04:25:51.750Z,76.23
2023-12-19T04:28:34.766Z,71.87
2023-12-19T04:31:18.069Z,71.93
2023-12-19T04:34:03.229Z,69.33
2023-12-19T04:36:46.373Z,67.93
2023-12-19T04:39:29.426Z,68.27
2023-12-19T04:42:18.653Z,73.73
2023-12-19T04:45:02.031Z,80.43
2023-12-19T04:47:45.095Z,78.57
2023-12-19T04:50:30.270Z,83.50
2023-12-19T04:53:13.492Z,75.00
2023-12-19T04:55:56.601Z,77.63
2023-12-19T04:58:39.714Z,79.47
2023-12-19T05:01:22.812Z,80.67
2023-12-19T05:04:06.116Z,73.97
2023-12-19T05:06:50.702Z,77.70
2023-12-19T05:09:34.058Z,70.73
2023-12-19T05:12:17.367Z,78.40
2023-12-19T05:15:00.453Z,76.47
2023-12-19T05:17:46.097Z,69.73
2023-12-19T05:20:30.785Z,69.80
2023-12-19T05:23:15.274Z,69.87
2023-12-19T05:25:58.271Z,74.37
2023-12-19T05:28:42.461Z,64.80
2023-12-19T05:31:25.911Z,72.40
2023-12-19T05:34:09.085Z,61.40
2023-12-19T05:36:52.424Z,65.67
2023-12-19T05:39:36.925Z,68.67
2023-12-19T05:42:20.755Z,61.80
2023-12-19T05:45:04.738Z,64.03
2023-12-19T05:47:47.908Z,65.13
2023-12-19T05:50:31.037Z,70.23
2023-12-19T05:53:14.191Z,66.83
2023-12-19T05:55:59.258Z,62.43
2023-12-19T05:58:42.312Z,66.83
2023-12-19T06:01:25.634Z,66.07
2023-12-19T06:04:08.941Z,65.97
2023-12-19T06:06:52.155Z,89.47
2023-12-19T06:09:35.522Z,99.57
2023-12-19T06:12:20.194Z,91.27
2023-12-19T06:15:03.757Z,79.63
2023-12-19T06:17:47.911Z,76.40
2023-12-19T06:20:31.204Z,85.30
2023-12-19T06:23:14.294Z,80.77
2023-12-19T06:25:57.414Z,84.47
2023-12-19T06:28:41.804Z,158.10
2023-12-19T06:31:26.123Z,153.50
2023-12-19T06:34:09.337Z,144.97
2023-12-19T06:36:52.559Z,127.20
2023-12-19T06:39:37.790Z,113.23
2023-12-19T06:42:22.618Z,120.27
2023-12-19T06:45:08.652Z,128.47
2023-12-19T06:47:51.820Z,135.60
2023-12-19T06:50:34.923Z,145.70
2023-12-19T06:53:18.009Z,147.17
2023-12-19T06:56:01.219Z,147.90
2023-12-19T06:58:44.297Z,148.77
2023-12-19T07:01:28.784Z,140.57
2023-12-19T07:04:11.950Z,147.63
2023-12-19T07:06:55.872Z,140.97
2023-12-19T07:09:39.149Z,140.47
2023-12-19T07:12:22.255Z,113.67
2023-12-19T07:15:06.851Z,101.40
2023-12-19T07:17:51.715Z,89.90
2023-12-19T07:20:36.481Z,97.40
2023-12-19T07:23:20.779Z,113.70
2023-12-19T07:26:04.294Z,118.60
2023-12-19T07:28:47.332Z,95.73
2023-12-19T07:31:32.591Z,104.47
2023-12-19T07:34:17.255Z,117.83
2023-12-19T07:37:00.498Z,105.73
2023-12-19T07:39:43.970Z,87.50
2023-12-19T07:42:27.082Z,88.97
2023-12-19T07:48:18.897Z,75.50
2023-12-19T07:51:03.455Z,70.90
2023-12-19T07:53:46.693Z,69.50
2023-12-19T07:56:29.882Z,74.63
2023-12-19T07:59:13.046Z,72.63
2023-12-19T08:01:56.252Z,69.13
2023-12-19T08:04:39.382Z,71.50
2023-12-19T08:11:28.475Z,90.30
2023-12-19T08:14:11.654Z,79.43
2023-12-19T08:16:54.783Z,78.63
2023-12-19T08:19:39.749Z,80.77
2023-12-19T08:22:24.461Z,70.60
2023-12-19T08:25:08.549Z,77.07
2023-12-19T08:27:53.025Z,78.53
2023-12-19T08:30:36.976Z,84.97
2023-12-19T08:33:21.785Z,85.87
2023-12-19T08:36:07.781Z,88.47
2023-12-19T08:39:11.591Z,84.03
2023-12-19T08:41:54.905Z,84.17
2023-12-19T08:44:41.108Z,81.20
2023-12-19T08:47:24.509Z,86.67
2023-12-19T08:50:11.010Z,90.87
2023-12-19T08:52:54.579Z,84.80
2023-12-19T08:55:37.678Z,82.77
2023-12-19T08:58:20.925Z,96.53
2023-12-19T09:01:05.954Z,93.87
2023-12-19T09:03:49.589Z,97.67
2023-12-19T09:06:32.710Z,97.50
2023-12-19T09:09:16.372Z,92.73
2023-12-19T09:11:59.474Z,95.30
2023-12-19T09:14:42.813Z,97.67
2023-12-19T09:17:27.389Z,90.17
2023-12-19T09:20:11.834Z,103.00
2023-12-19T09:22:54.974Z,111.20
2023-12-19T09:25:38.245Z,124.63
2023-12-19T09:28:22.385Z,105.30
2023-12-19T09:31:08.987Z,100.00
2023-12-19T09:33:54.045Z,117.60
2023-12-19T09:36:46.679Z,124.97
2023-12-19T09:39:36.557Z,126.83
2023-12-19T09:42:20.651Z,118.87
2023-12-19T09:45:03.965Z,105.60
2023-12-19T09:47:57.192Z,101.20
2023-12-19T09:50:44.434Z,95.33
2023-12-19T09:53:33.054Z,81.40
2023-12-19T09:56:21.125Z,73.83
2023-12-19T09:59:05.773Z,70.23
2023-12-19T10:01:49.197Z,63.87
2023-12-19T10:04:32.586Z,69.10
2023-12-19T10:07:17.108Z,63.47
2023-12-19T10:10:00.536Z,64.13
2023-12-19T10:12:57.417Z,58.60
2023-12-19T10:15:41.440Z,61.30
2023-12-19T10:18:31.200Z,52.77
2023-12-19T10:21:20.979Z,52.80
2023-12-19T10:24:13.465Z,56.57
2023-12-19T10:27:01.461Z,53.10
2023-12-19T10:29:44.622Z,51.20
2023-12-19T10:32:27.709Z,52.43
2023-12-19T10:35:11.193Z,49.93
2023-12-19T10:38:01.182Z,52.20
2023-12-19T10:40:45.702Z,48.63
2023-12-19T10:43:30.394Z,54.17
2023-12-19T10:46:17.188Z,53.80
2023-12-19T10:49:02.227Z,55.37
2023-12-19T10:51:52.629Z,54.07
2023-12-19T10:54:37.840Z,56.97
2023-12-19T10:57:24.536Z,56.40
2023-12-19T11:00:12.102Z,60.47
2023-12-19T11:03:06.492Z,65.53
2023-12-19T11:05:52.416Z,53.27
2023-12-19T11:08:37.130Z,51.93
2023-12-19T11:11:26.845Z,64.40
2023-12-19T11:14:11.686Z,56.30
2023-12-19T11:17:00.611Z,51.90
2023-12-19T11:19:49.909Z,47.27
2023-12-19T11:22:38.592Z,47.30
2023-12-19T11:25:30.884Z,53.80
2023-12-19T11:28:15.838Z,54.83
2023-12-19T11:31:00.564Z,60.70
2023-12-19T11:33:43.915Z,53.57
2023-12-19T11:36:27.604Z,51.97
2023-12-19T11:39:27.349Z,52.83
2023-12-19T11:42:11.253Z,53.67
2023-12-19T11:44:54.332Z,56.83
2023-12-19T11:47:38.855Z,58.43
2023-12-19T11:50:48.900Z,59.47
2023-12-19T11:53:32.060Z,59.13
2023-12-19T11:56:15.540Z,58.07
2023-12-19T11:58:58.767Z,61.87
2023-12-19T12:01:42.470Z,59.63
2023-12-19T12:04:27.545Z,56.47
2023-12-19T12:07:10.883Z,53.87
2023-12-19T12:10:02.927Z,59.87
2023-12-19T12:12:46.815Z,57.90
2023-12-19T12:15:31.184Z,62.30
2023-12-19T12:18:15.524Z,54.93
2023-12-19T12:21:08.031Z,51.33
2023-12-19T12:23:54.262Z,51.83
2023-12-19T12:26:37.347Z,53.00
2023-12-19T12:29:21.665Z,46.43
2023-12-19T12:32:05.713Z,46.87
2023-12-19T12:34:51.272Z,43.73
2023-12-19T12:37:35.983Z,41.00
2023-12-19T12:40:19.256Z,44.50
2023-12-19T12:43:28.665Z,60.47
2023-12-19T12:46:14.138Z,81.23
2023-12-19T12:49:04.415Z,70.10
2023-12-19T12:51:48.124Z,87.00
2023-12-19T12:54:32.979Z,83.80
2023-12-19T12:57:16.109Z,91.90
2023-12-19T12:59:59.204Z,78.67
2023-12-19T13:02:42.289Z,87.30
2023-12-19T13:05:25.878Z,95.40
2023-12-19T13:08:10.533Z,90.40
2023-12-19T13:10:55.169Z,91.60
2023-12-19T13:13:38.713Z,69.77
2023-12-19T13:16:22.397Z,72.27
2023-12-19T13:19:05.616Z,68.30
2023-12-19T13:21:48.813Z,67.77
2023-12-19T13:24:34.136Z,65.87
2023-12-19T13:27:18.631Z,65.40
2023-12-19T13:30:01.776Z,67.63
2023-12-19T13:32:44.905Z,62.90
2023-12-19T13:35:28.034Z,67.17
2023-12-19T13:38:11.233Z,70.60
2023-12-19T13:40:54.538Z,63.93
2023-12-19T13:43:39.017Z,72.40
2023-12-19T13:46:22.093Z,66.20
2023-12-19T13:49:05.577Z,70.30
2023-12-19T13:51:48.794Z,66.93
2023-12-19T13:54:31.973Z,61.77
2023-12-19T13:57:15.055Z,63.50
2023-12-19T13:59:59.489Z,69.80
2023-12-19T14:02:42.735Z,79.30
2023-12-19T14:05:26.794Z,67.17
2023-12-19T14:08:10.955Z,60.00
2023-12-19T14:10:53.983Z,61.83
2023-12-19T14:13:37.022Z,87.50
2023-12-19T14:16:21.495Z,78.07
2023-12-19T14:19:05.943Z,77.67
2023-12-19T14:21:51.373Z,74.33
2023-12-19T14:24:34.600Z,88.93
2023-12-19T14:27:17.804Z,108.00
2023-12-19T14:30:01.248Z,111.17
2023-12-19T14:32:45.937Z,102.77
2023-12-19T14:35:29.118Z,101.23
2023-12-19T14:38:14.059Z,113.20
2023-12-19T14:40:57.208Z,109.43
2023-12-19T14:43:40.370Z,94.50
2023-12-19T14:46:24.485Z,96.87
2023-12-19T14:49:11.999Z,91.90
2023-12-19T14:51:56.161Z,98.13
2023-12-19T14:54:39.271Z,111.20
2023-12-19T14:57:26.374Z,121.37
2023-12-19T15:00:12.181Z,117.40
2023-12-19T15:02:55.367Z,127.40
2023-12-19T15:05:39.831Z,112.97
2023-12-19T15:08:23.560Z,121.33
2023-12-19T15:11:06.687Z,108.10
2023-12-19T15:13:49.775Z,105.47
2023-12-19T15:16:32.828Z,82.87
2023-12-19T15:19:16.029Z,122.10
2023-12-19T15:22:00.682Z,97.87
2023-12-19T15:24:43.827Z,102.27
2023-12-19T15:27:26.898Z,92.23
2023-12-19T15:30:12.824Z,99.30
2023-12-19T15:32:59.146Z,92.13
2023-12-19T15:35:45.017Z,77.63
2023-12-19T15:38:30.459Z,73.17
2023-12-19T15:41:13.688Z,85.53
2023-12-19T15:44:04.711Z,78.73
2023-12-19T15:46:53.691Z,74.73
2023-12-19T15:49:39.655Z,76.40
2023-12-19T15:52:22.901Z,76.33
2023-12-19T15:55:08.477Z,68.17
2023-12-19T15:57:52.372Z,72.67
2023-12-19T16:00:36.167Z,72.53
2023-12-19T16:03:20.276Z,68.00
2023-12-19T16:06:03.764Z,61.67
2023-12-19T16:08:47.967Z,67.70
2023-12-19T16:11:32.462Z,81.30
2023-12-19T16:14:15.621Z,94.90
2023-12-19T16:16:59.044Z,81.27
2023-12-19T16:19:43.613Z,75.47
2023-12-19T16:22:26.996Z,79.00
2023-12-19T16:25:10.731Z,69.30
2023-12-19T16:27:55.263Z,62.63
2023-12-19T16:30:38.847Z,70.07
2023-12-19T16:33:23.863Z,70.43
2023-12-19T16:36:12.762Z,67.53
2023-12-19T16:38:55.917Z,61.13
2023-12-19T16:41:39.027Z,60.70
2023-12-19T16:44:23.597Z,73.00
2023-12-19T16:47:07.104Z,71.77
2023-12-19T16:49:52.577Z,62.37
2023-12-19T16:52:35.742Z,64.47
2023-12-19T16:55:19.037Z,60.27
2023-12-19T16:58:07.393Z,54.83
2023-12-19T17:00:51.996Z,51.73
2023-12-19T17:03:35.195Z,51.43
2023-12-19T17:06:20.171Z,58.03
2023-12-19T17:09:04.127Z,69.63
2023-12-19T17:11:47.233Z,56.07
2023-12-19T17:14:30.337Z,63.43
2023-12-19T17:17:14.840Z,65.00
2023-12-19T17:19:58.058Z,61.20
2023-12-19T17:22:41.303Z,70.13
2023-12-19T17:25:24.438Z,86.50
2023-12-19T17:28:08.094Z,115.60
2023-12-19T17:30:51.569Z,216.07
2023-12-19T17:33:36.971Z,219.13
2023-12-19T17:36:23.764Z,262.13
2023-12-19T17:39:06.901Z,345.97
2023-12-19T17:41:49.961Z,294.60
2023-12-19T17:44:33.120Z,237.20
2023-12-19T17:47:16.273Z,273.90
2023-12-19T17:50:01.008Z,241.47
2023-12-19T17:52:44.331Z,235.47
2023-12-19T17:55:27.614Z,66.77
2023-12-19T17:58:10.692Z,71.30
2023-12-19T18:00:54.010Z,135.33
2023-12-19T18:03:37.315Z,87.97
2023-12-19T18:06:21.797Z,150.40
2023-12-19T18:09:05.878Z,130.03
2023-12-19T18:11:49.985Z,165.97
2023-12-19T18:14:32.982Z,186.33
2023-12-19T18:17:17.393Z,220.03
2023-12-19T18:20:00.624Z,215.00
2023-12-19T18:22:48.015Z,197.23
2023-12-19T18:25:31.680Z,208.30
2023-12-19T18:28:14.732Z,175.03
2023-12-19T18:30:58.034Z,199.53
2023-12-19T18:33:41.553Z,197.07
2023-12-19T18:36:24.933Z,271.63
2023-12-19T18:39:09.438Z,253.03
2023-12-19T18:41:54.484Z,292.23
2023-12-19T18:44:39.508Z,277.40
2023-12-19T18:47:22.667Z,279.00
2023-12-19T18:50:06.581Z,275.80
2023-12-19T18:52:51.465Z,271.63
2023-12-19T18:55:39.390Z,255.83
2023-12-19T18:58:22.551Z,253.13
2023-12-19T19:01:12.363Z,255.63
2023-12-19T19:03:56.034Z,230.20
2023-12-19T19:06:42.102Z,172.03
2023-12-19T19:09:25.221Z,158.13
2023-12-19T19:12:11.857Z,97.43
2023-12-19T19:14:54.890Z,99.57
2023-12-19T19:17:37.962Z,89.03
2023-12-19T19:20:37.596Z,59.43
2023-12-19T19:23:21.368Z,85.93
2023-12-19T19:26:05.514Z,44.60
2023-12-19T19:28:49.946Z,52.70
2023-12-19T19:31:33.038Z,64.03
2023-12-19T19:34:16.230Z,63.20
2023-12-19T19:36:59.770Z,70.93
2023-12-19T19:39:43.493Z,66.27
2023-12-19T19:42:28.684Z,51.90
2023-12-19T19:45:13.898Z,62.93
2023-12-19T19:47:57.042Z,78.90
2023-12-19T19:50:40.109Z,87.73
2023-12-19T19:53:23.135Z,72.17
2023-12-19T19:56:07.000Z,62.00
2023-12-19T19:58:50.185Z,53.30
2023-12-19T20:01:34.664Z,62.03
2023-12-19T20:04:17.931Z,57.73
2023-12-19T20:07:01.259Z,52.27
2023-12-19T20:09:44.609Z,40.00
2023-12-19T20:12:27.986Z,43.83
2023-12-19T20:15:11.487Z,48.50
2023-12-19T20:17:55.990Z,47.23
2023-12-19T20:20:39.162Z,39.80
2023-12-19T20:23:28.954Z,39.67
2023-12-19T20:26:12.619Z,45.77
2023-12-19T20:28:55.634Z,43.37
2023-12-19T20:31:38.829Z,46.50
2023-12-19T20:34:23.904Z,52.93
2023-12-19T20:37:07.095Z,46.10
2023-12-19T20:39:50.194Z,47.90
2023-12-19T20:42:33.436Z,57.30
2023-12-19T20:45:17.080Z,44.97
2023-12-19T20:48:00.162Z,60.53
2023-12-19T20:50:44.746Z,75.67
2023-12-19T20:53:28.828Z,180.07
2023-12-19T20:56:12.329Z,356.73
2023-12-19T20:58:55.423Z,431.37
2023-12-19T21:01:38.557Z,330.40
2023-12-19T21:04:21.694Z,252.83
2023-12-19T21:07:06.727Z,214.03
2023-12-19T21:09:49.823Z,155.43
2023-12-19T21:12:32.874Z,157.07
2023-12-19T21:15:16.349Z,161.80
2023-12-19T21:18:00.482Z,160.87
2023-12-19T21:20:43.610Z,193.63
2023-12-19T21:23:30.119Z,178.97
2023-12-19T21:26:13.216Z,170.37
2023-12-19T21:28:56.249Z,176.80
2023-12-19T21:31:39.346Z,185.23
2023-12-19T21:34:22.619Z,179.07
2023-12-19T21:37:06.037Z,181.47
2023-12-19T21:39:50.570Z,176.20
2023-12-19T21:42:33.728Z,181.40
2023-12-19T21:45:17.973Z,187.87
2023-12-19T21:48:01.190Z,201.20
2023-12-19T21:50:44.364Z,202.60
2023-12-19T21:53:27.447Z,192.73
2023-12-19T21:56:11.883Z,194.07
2023-12-19T21:58:54.964Z,192.70
2023-12-19T22:01:38.131Z,182.97
2023-12-19T22:04:21.415Z,175.60
2023-12-19T22:07:04.721Z,166.43
2023-12-19T22:09:57.285Z,171.67
2023-12-19T22:12:47.514Z,160.60
2023-12-19T22:15:30.647Z,212.23
2023-12-19T22:18:13.683Z,239.53
2023-12-19T22:20:57.065Z,245.30
2023-12-19T22:23:40.784Z,251.47
2023-12-19T22:26:23.954Z,230.37
2023-12-19T22:29:08.544Z,180.47
2023-12-19T22:31:52.254Z,174.27
2023-12-19T22:34:35.322Z,164.33
2023-12-19T22:37:18.485Z,167.93
2023-12-19T22:40:01.618Z,178.33
2023-12-19T22:42:44.745Z,195.80
2023-12-19T22:45:30.104Z,187.07
2023-12-19T22:48:13.349Z,173.00
2023-12-19T22:50:56.451Z,173.73
2023-12-19T22:53:39.490Z,155.00
2023-12-19T22:56:23.099Z,155.50
2023-12-19T22:59:06.155Z,162.17
2023-12-19T23:01:54.156Z,133.07
2023-12-19T23:04:41.395Z,142.63
2023-12-19T23:07:24.567Z,137.70
2023-12-19T23:10:09.023Z,142.33
2023-12-19T23:12:53.531Z,138.40
2023-12-19T23:15:37.046Z,136.23
2023-12-19T23:18:21.884Z,125.67
2023-12-19T23:21:05.720Z,123.23
2023-12-19T23:23:51.011Z,114.30
2023-12-19T23:26:34.040Z,115.50
2023-12-19T23:29:17.091Z,117.30
2023-12-19T23:32:01.028Z,114.43
2023-12-19T23:34:45.571Z,106.03
2023-12-19T23:37:28.599Z,106.43
2023-12-19T23:40:13.358Z,89.07
2023-12-19T23:42:56.662Z,140.80
2023-12-19T23:45:39.942Z,147.37
2023-12-19T23:48:23.678Z,167.20
2023-12-19T23:51:08.130Z,192.93
2023-12-19T23:53:51.191Z,136.20
2023-12-19T23:56:34.261Z,165.97
2023-12-19T23:59:17.304Z,162.33
